Incline Creek, Nevada Weather observations

Data are for observation ending at time listed.
 Day   Time    Ave.   Ave.  Ave.  Vector   Max.   Stn.    Total    Solar   Ave.   Snow 
  of    of     Air    Rel.  Wind   Wind    Wind   Baro.  Precip.   Rad.    Soil   Depth
Year   Day     Temp.  Hum.  Speed  Dir.    Gust   Pres.                    Temp.       
2016   (PST)    F      %     mph   deg.    mph     mb.     in.     W/m2     F      in. 
---------------------------------------------------------------------------------------  
 120    7:10   39.1    80    2.1   114      6.2   999.0    0.00     263    999.0    0.0
 120    7:20   39.6    79    2.8   145      8.4   999.0    0.00     391    999.0    0.0
 120    7:30   39.3    82    2.9   136      8.0   999.0    0.00     228    999.0    0.0
 120    7:40   39.1    81    6.1   155     11.3   999.0    0.00     240    999.0    0.0
 120    7:50   39.5    78    3.8   138      8.4   999.0    0.00     207    999.0    0.0
 120    8:00   40.8    72    5.9   161     13.2   999.0    0.00     514    999.0   83.9
 120    8:10   41.9    66    6.9   151     14.9   999.0    0.00     531    999.0   83.9
 120    8:20   42.8    63    6.5   149     13.6   999.0    0.00     641    999.0   83.9
 120    8:30   43.0    63    6.7   153     11.7   999.0    0.00     630    999.0    0.0
 120    8:40   43.3    62    6.3   158     14.9   999.0    0.00     516    999.0   83.9
 120    8:50   43.4    61    7.9   148     13.2   999.0    0.00     621    999.0   83.9
 120    9:00   43.4    61    9.4   165     15.6   999.0    0.00     724    999.0   83.9
 120    9:10   43.5    61    8.0   163     13.5   999.0    0.00     701    999.0   83.9
 120    9:20   43.4    62    9.2   166     15.5   999.0    0.00     757    999.0   83.9
 120    9:30   43.7    61    9.4   155     15.1   999.0    0.00     766    999.0   83.9
 120    9:40   44.5    58    7.6   160     13.6   999.0    0.00     859    999.0   83.9
 120    9:50   45.1    57    7.9   161     14.9   999.0    0.00     870    999.0   83.9
 120   10:00   45.4    53    7.3   164     12.5   999.0    0.00     796    999.0    0.0
 120   10:10   45.7    52    8.0   165     14.9   999.0    0.00     780    999.0    0.0
 120   10:20   45.8    51    6.8   166     12.5   999.0    0.00     851    999.0    0.0
 120   10:30   46.6    48    7.8   170     17.8   999.0    0.00     958    999.0    0.0
 120   10:40   46.5    45    7.8   169     13.8   999.0    0.00     958    999.0   83.9
 120   10:50   46.8    45    7.3   167     14.3   999.0    0.00     965    999.0   83.9
 120   11:00   47.4    43    8.1   149     14.1   999.0    0.00     896    999.0    0.0
 120   11:10   48.0    42    7.7   148     13.6   999.0    0.00     903    999.0    0.0
 120   11:20   47.6    45    7.4   163     15.2   999.0    0.00     790    999.0   83.9
 120   11:30   47.9    44   10.5   149     19.7   999.0    0.00     791    999.0    0.0
 120   11:40   47.1    46    9.5   146     16.4   999.0    0.00     458    999.0   83.9
 120   11:50   47.8    46    7.6   138     16.2   999.0    0.00     548    999.0   83.9
 120   12:00   47.7    45    9.8   158     16.8   999.0    0.00     721    999.0   83.9
 120   12:10   49.7    34    9.0   128     18.2   999.0    0.00     803    999.0   83.9
 120   12:20   50.1    34    8.5   128     16.2   999.0    0.00     847    999.0   83.9
 120   12:30   50.0    40    7.3   126     14.6   999.0    0.00     799    999.0   83.9
 120   12:40   49.8    42    6.9   135     15.8   999.0    0.00     893    999.0    0.0
 120   12:50   49.3    43    8.5   136     18.8   999.0    0.00     634    999.0   83.9
 120   13:00   49.1    45    8.5   137     14.6   999.0    0.00     746    999.0   83.9
 120   13:10   49.4    44    7.7   128     16.4   999.0    0.00     569    999.0   83.9
 120   13:20   48.8    46    7.2   127     17.3   999.0    0.00     536    999.0   83.9
 120   13:30   49.3    46    7.6   130     17.5   999.0    0.00     685    999.0   83.9
 120   13:40   50.0    39    7.5   121     18.9   999.0    0.00     658    999.0   83.9
 120   13:50   49.9    38    9.5   124     16.0   999.0    0.00     651    999.0   83.9
 120   14:00   50.1    39    7.2   126     17.6   999.0    0.00     541    999.0   83.9
 120   14:10   49.6    39    9.0   116     20.7   999.0    0.00     509    999.0   83.9
 120   14:20   49.4    42    7.7   116     17.5   999.0    0.00     338    999.0   83.9
 120   14:30   48.3    48    8.1   115     18.3   999.0    0.00     197    999.0   83.9
 120   14:40   46.7    55    8.0   114     17.2   999.0    0.00     261    999.0   83.9
 120   14:50   47.4    53    9.3   111     17.2   999.0    0.00     476    999.0   83.9
 120   15:00   48.3    47   10.2   121     21.5   999.0    0.00     781    999.0   83.9
 120   15:10   48.6    47    8.2   111     15.7   999.0    0.00     620    999.0   83.9
 120   15:20   48.0    47    8.6   111     16.7   999.0    0.00     312    999.0   83.9
 120   15:30   48.9    45    8.8   116     18.9   999.0    0.00     630    999.0   83.9
 120   15:40   48.2    48    9.2   126     19.3   999.0    0.00     570    999.0   83.9
 120   15:50   47.8    49    8.2   119     16.2   999.0    0.00     433    999.0   83.9
 120   16:00   46.2    53    7.6   127     16.7   999.0    0.00     233    999.0   83.9
 120   16:10   46.8    46    7.2   126     16.5   999.0    0.00     235    999.0   83.9
 120   16:20   46.1    49    7.0   110     14.3   999.0    0.00     194    999.0   83.9
 120   16:30   46.3    50    9.0   118     17.1   999.0    0.00     257    999.0   83.9
 120   16:40   46.0    50    7.2   109     16.4   999.0    0.00     166    999.0   83.9
 120   16:50   46.3    42   10.6   121     24.6   999.0    0.00     150    999.0   83.9
 120   17:00   46.4    46    7.3   112     15.8   999.0    0.00     185    999.0   83.9
 120   17:10   45.7    48    7.2   118     15.0   999.0    0.00     157    999.0   83.9
 120   17:20   45.2    51    6.2   115     16.2   999.0    0.00     108    999.0   83.9
 120   17:30   44.5    52    7.1   133     13.1   999.0    0.00      70    999.0   83.9
 120   17:40   43.9    52    5.2   116     11.5   999.0    0.00      47    999.0   83.9
 120   17:50   43.5    52    5.4   110     12.8   999.0    0.00      27    999.0   83.9
 120   18:00   43.3    50    6.4   113     17.8   999.0    0.00      21    999.0   83.9
 120   18:10   43.3    48    5.4   112     15.3   999.0    0.00      15    999.0   83.9
 120   18:20   43.0    50    3.7   112      9.1   999.0    0.00       2    999.0   83.9
 120   18:30   41.4    60    3.8   116     14.8   999.0    0.00       1    999.0   83.9
 120   18:40   36.6    84    1.7    36      4.8   999.0    0.00       1    999.0   83.9
 120   18:50   35.5    89    0.5   320      1.5   999.0    0.00       0    999.0   83.9
 120   19:00   35.0    92    0.9   116      2.6   999.0    0.00       0    999.0   83.9
 120   19:10   33.3    95    2.1   186      4.1   999.0    0.00       0    999.0   83.9
 120   19:20   32.9   100    2.5   160      5.2   999.0    0.00       0    999.0   83.9
 120   19:30   32.5   103    0.4   120      1.7   999.0    0.00       0    999.0   83.9
 120   19:40   32.6   104    0.0     0      0.0   999.0    0.00       0    999.0   83.9
 120   19:50   32.8   103    0.0     0      0.0   999.0    0.00       0    999.0   83.9
 120   20:00   33.9    84    0.0     0      0.0   999.0    0.00       0    999.0   83.9
 120   20:10   34.1    83    0.0     0      0.0   999.0    0.00       0    999.0   83.9
 120   20:20   33.1    93    0.0     0      0.0   999.0    0.00       0    999.0   83.9
 120   20:30   32.9    98    0.0     0      0.0   999.0    0.00       0    999.0   83.9
 120   20:40   32.9    97    0.0     0      0.0   999.0    0.00       0    999.0   83.9
 120   20:50   32.8   101    0.0     0      0.0   999.0    0.00       0    999.0   83.9
 120   21:00   32.8   102    0.0     0      0.0   999.0    0.00       0    999.0   83.9
 120   21:10   32.8   103    0.0     0      0.0   999.0    0.00       0    999.0   83.9
 120   21:20   32.7   104    0.0     0      0.0   999.0    0.00       0    999.0   83.9
 120   21:30   32.8   104    0.0     0      0.0   999.0    0.00       0    999.0   83.9
 120   21:40   32.7   105    0.0     0      0.0   999.0    0.00       0    999.0   83.9
 120   21:50   32.7   105    0.0     0      0.0   999.0    0.00       0    999.0   83.9
 120   22:00   32.7   105    0.0     0      0.0   999.0    0.00       0    999.0   83.9
 120   22:10   32.7   102    0.0     0      0.0   999.0    0.00       0    999.0   83.9
 120   22:20   32.6    94    0.0     0      0.0   999.0    0.00       0    999.0   83.9
 120   22:30   32.6    90    0.0     0      0.0   999.0    0.00       0    999.0   83.9
 120   22:40   32.8    83    0.0     0      0.0   999.0    0.00       0    999.0   83.9
 120   22:50   32.7    82    0.0     0      0.0   999.0    0.00       0    999.0   83.9
 120   23:00   32.6    81    0.0     0      0.0   999.0    0.00       0    999.0   83.9
 120   23:10   32.8    78    0.0     0      0.0   999.0    0.00       0    999.0   83.9
 120   23:20   32.7    79    0.0     0      0.0   999.0    0.00       0    999.0   83.9
 120   23:30   32.8    78    0.0     0      0.0   999.0    0.00       0    999.0   83.9
 120   23:40   32.5    81    0.0     0      0.0   999.0    0.00       0    999.0   83.9
 120   23:50   32.5    78    0.0     0      0.0   999.0    0.00       0    999.0   83.9
 121    0:00   32.7    76    0.0     0      0.0   999.0    0.00       0    999.0   83.9
 121    0:10   32.6    78    0.0     0      0.0   999.0    0.00       0    999.0   83.9
 121    0:20   32.4    79    0.0     0      0.0   999.0    0.00       0    999.0   83.9
 121    0:30   32.5    78    0.0     0      0.0   999.0    0.00       0    999.0   83.9
 121    0:40   31.9    84    0.0     0      0.0   999.0    0.00       0    999.0   83.9
 121    0:50   31.3    82    0.0     0      0.0   999.0    0.00       0    999.0   83.9
 121    1:00   31.1    82    0.0     0      0.0   999.0    0.00       0    999.0   83.9
 121    1:10   31.0    79    0.0     0      0.0   999.0    0.00       0    999.0   83.9
 121    1:20   31.6    74    0.0     0      0.0   999.0    0.00       0    999.0   83.9
 121    1:30   31.7    75    0.0     0      0.0   999.0    0.00       0    999.0   83.9
 121    1:40   31.7    75    0.0     0      0.0   999.0    0.00       0    999.0   83.9
 121    1:50   31.7    74    0.0     0      0.0   999.0    0.00       0    999.0   83.9
 121    2:00   31.9    72    0.0     0      0.0   999.0    0.00       0    999.0   83.9
 121    2:10   32.0    73    0.0     0      0.0   999.0    0.00       0    999.0   83.9
 121    2:20   31.8    74    0.0     0      0.0   999.0    0.00       0    999.0   83.9
 121    2:30   31.6    74    0.0     0      0.0   999.0    0.00       0    999.0   83.9
 121    2:40   31.4    75    0.0     0      0.0   999.0    0.00       0    999.0   83.9
 121    2:50   31.4    75    0.0     0      0.0   999.0    0.00       0    999.0   83.9
 121    3:00   31.5    75    0.0     0      0.0   999.0    0.00       0    999.0   83.9
 121    3:10   31.7    74    0.0     0      0.0   999.0    0.00       0    999.0   83.9
 121    3:20   31.9    75    0.0     0      0.0   999.0    0.00       0    999.0   83.9
 121    3:30   31.8    76    0.0     0      0.0   999.0    0.00       0    999.0   83.9
 121    3:40   31.5    78    0.0     0      0.0   999.0    0.00       0    999.0   83.9
 121    3:50   31.4    78    0.0     0      0.0   999.0    0.00       0    999.0   83.9
 121    4:00   31.6    78    0.0     0      0.0   999.0    0.00       0    999.0   83.9
 121    4:10   32.5    75    0.0     0      0.0   999.0    0.00       0    999.0   83.9
 121    4:20   32.5    75    0.0     0      0.0   999.0    0.00       0    999.0   83.9
 121    4:30   32.5    76    0.0     0      0.0   999.0    0.00       0    999.0   83.9
 121    4:40   32.8    75    0.0     0      0.0   999.0    0.00       0    999.0   83.9
 121    4:50   33.0    76    0.0     0      0.0   999.0    0.00       0    999.0   83.9
 121    5:00   33.1    77    0.0     0      0.0   999.0    0.00       0    999.0   83.9
 121    5:10   33.2    78    0.0     0      0.0   999.0    0.00       1    999.0   83.9
 121    5:20   33.3    78    0.0     0      0.0   999.0    0.00       1    999.0   83.9
 121    5:30   33.3    78    0.0     0      0.0   999.0    0.00       2    999.0   83.9
 121    5:40   33.3    79    0.0     0      0.0   999.0    0.00       3    999.0   83.9
 121    5:50   33.4    78    2.7   329     11.6   999.0    0.00       8    999.0   83.9
 121    6:00   33.7    77    5.6   346     15.1   999.0    0.00      12    999.0   83.9
 121    6:10   33.9    76    5.3    10     16.3   999.0    0.00      15    999.0   83.9
 121    6:20   34.0    75    4.5   358     10.3   999.0    0.00      18    999.0   83.9
 121    6:30   33.8    77    5.5   350     16.1   999.0    0.00      21    999.0   83.9
 121    6:40   33.6    77    6.2    16     14.3   999.0    0.00      27    999.0   83.9
 121    6:50   33.6    78    4.0     1     12.1   999.0    0.00      26    999.0   83.9
 121    7:00   33.7    76    4.8   353     10.3   999.0    0.00      31    999.0   83.9

Return to Incline Creek graphs page.


Western Regional Climate Center,wrcc@dri.edu